NWS475 URSS-UNKL
Flight info
| Callsign | NWS475 |
|---|---|
| Flight time | 4h 38m |
| Altitude | 35000 |
| Route | K0882F350 IRGID A944 GUBOR G487 ERSAR DCT BEMES DCT ITAKA DCT AKT/K0887F370 P574 OGANU N55 DAKIN G828 NN A300 RANET |
| Aircraft | B77W/H-SDE1E2E3FGHIJ2J3J4J5M1RWXY/LB1D1 |
Departure
| Time | 2026-05-01 10:51 |
|---|---|
| Airport | Sochi International Airport (URSS) |
Arrival
| Time | 2026-05-01 15:29 |
|---|---|
| Airport | Krasnoyarsk International Airport (UNKL) |
| Time | Latitude | Longitude | Altitude | Speed | Heading |
|---|---|---|---|---|---|
| 2026-05-01 09:31 | 43.44894 | 39.94522 | 79 ft | 0 kts | 298° |
| 2026-05-01 10:11 | 43.44894 | 39.94523 | 79 ft | 0 kts | 298° |
| 2026-05-01 10:37 | 43.44892 | 39.94526 | 82 ft | 2 kts | 298° |
| 2026-05-01 10:37 | 43.44863 | 39.94585 | 83 ft | 4 kts | 314° |
| 2026-05-01 10:37 | 43.44843 | 39.94610 | 85 ft | 4 kts | 324° |
| 2026-05-01 10:38 | 43.44821 | 39.94628 | 85 ft | 4 kts | 339° |
| 2026-05-01 10:38 | 43.44797 | 39.94637 | 84 ft | 4 kts | 1° |
| 2026-05-01 10:38 | 43.44776 | 39.94632 | 83 ft | 4 kts | 34° |
| 2026-05-01 10:38 | 43.44766 | 39.94619 | 85 ft | 0 kts | 64° |
| 2026-05-01 10:43 | 43.44766 | 39.94618 | 85 ft | 0 kts | 64° |
| 2026-05-01 10:45 | 43.44766 | 39.94619 | 85 ft | 0 kts | 65° |
| 2026-05-01 10:45 | 43.44768 | 39.94624 | 84 ft | 1 kts | 64° |
| 2026-05-01 10:45 | 43.44771 | 39.94635 | 83 ft | 2 kts | 64° |
| 2026-05-01 10:45 | 43.44783 | 39.94667 | 85 ft | 6 kts | 64° |
| 2026-05-01 10:46 | 43.44806 | 39.94735 | 84 ft | 10 kts | 65° |
| 2026-05-01 10:46 | 43.44839 | 39.94833 | 85 ft | 13 kts | 65° |
| 2026-05-01 10:46 | 43.44879 | 39.94948 | 88 ft | 13 kts | 64° |
| 2026-05-01 10:46 | 43.44918 | 39.95063 | 89 ft | 13 kts | 65° |
| 2026-05-01 10:47 | 43.44953 | 39.95155 | 92 ft | 11 kts | 64° |
| 2026-05-01 10:47 | 43.44978 | 39.95229 | 92 ft | 2 kts | 64° |
| 2026-05-01 10:48 | 43.44983 | 39.95244 | 95 ft | 4 kts | 64° |
| 2026-05-01 10:49 | 43.44995 | 39.95291 | 94 ft | 6 kts | 89° |
| 2026-05-01 10:49 | 43.44969 | 39.95341 | 97 ft | 8 kts | 141° |
| 2026-05-01 10:49 | 43.44923 | 39.95371 | 95 ft | 2 kts | 166° |
| 2026-05-01 10:49 | 43.44904 | 39.95357 | 97 ft | 6 kts | 219° |
| 2026-05-01 10:50 | 43.44875 | 39.95296 | 93 ft | 6 kts | 246° |
| 2026-05-01 10:50 | 43.44870 | 39.95283 | 92 ft | 0 kts | 244° |
| 2026-05-01 10:50 | 43.44870 | 39.95282 | 92 ft | 0 kts | 244° |
| 2026-05-01 10:51 | 43.44813 | 39.95117 | 90 ft | 53 kts | 245° |
| 2026-05-01 10:51 | 43.44532 | 39.94292 | 85 ft | 134 kts | 244° |
| 2026-05-01 10:51 | 43.44068 | 39.92828 | 110 ft | 191 kts | 248° |
| 2026-05-01 10:51 | 43.43575 | 39.91207 | 1065 ft | 177 kts | 249° |
| 2026-05-01 10:52 | 43.43222 | 39.89571 | 1728 ft | 182 kts | 259° |
| 2026-05-01 10:52 | 43.42985 | 39.87760 | 2041 ft | 206 kts | 260° |
| 2026-05-01 10:52 | 43.42725 | 39.85749 | 2494 ft | 219 kts | 259° |
| 2026-05-01 10:52 | 43.42416 | 39.83584 | 2795 ft | 244 kts | 258° |
| 2026-05-01 10:53 | 43.42045 | 39.81236 | 3373 ft | 254 kts | 256° |
| 2026-05-01 10:53 | 43.41647 | 39.78895 | 4347 ft | 248 kts | 255° |
| 2026-05-01 10:53 | 43.41256 | 39.76600 | 5230 ft | 248 kts | 255° |
| 2026-05-01 10:53 | 43.40840 | 39.74204 | 5622 ft | 267 kts | 254° |
| 2026-05-01 10:54 | 43.40389 | 39.71715 | 6419 ft | 268 kts | 253° |
| 2026-05-01 10:54 | 43.39936 | 39.69246 | 7314 ft | 265 kts | 254° |
| 2026-05-01 10:54 | 43.39508 | 39.66802 | 8184 ft | 261 kts | 260° |
| 2026-05-01 10:54 | 43.39648 | 39.64293 | 8707 ft | 271 kts | 289° |
| 2026-05-01 10:55 | 43.40669 | 39.62108 | 9418 ft | 274 kts | 312° |
| 2026-05-01 10:55 | 43.42211 | 39.60517 | 10072 ft | 282 kts | 332° |
| 2026-05-01 10:55 | 43.44058 | 39.59605 | 10784 ft | 283 kts | 338° |
| 2026-05-01 10:55 | 43.45971 | 39.58656 | 11070 ft | 305 kts | 335° |
| 2026-05-01 10:56 | 43.48025 | 39.57528 | 11281 ft | 330 kts | 335° |
| 2026-05-01 10:56 | 43.50234 | 39.56296 | 11490 ft | 356 kts | 335° |
| 2026-05-01 10:56 | 43.52600 | 39.54984 | 11954 ft | 373 kts | 335° |
| 2026-05-01 10:56 | 43.55030 | 39.53649 | 12778 ft | 380 kts | 335° |
| 2026-05-01 10:57 | 43.57504 | 39.52293 | 13697 ft | 385 kts | 334° |
| 2026-05-01 10:57 | 43.60005 | 39.50922 | 14565 ft | 388 kts | 334° |
| 2026-05-01 10:57 | 43.62589 | 39.49823 | 15256 ft | 397 kts | 348° |
| 2026-05-01 10:57 | 43.65396 | 39.49966 | 15951 ft | 415 kts | 9° |
| 2026-05-01 10:58 | 43.68148 | 39.51235 | 16663 ft | 419 kts | 19° |
| 2026-05-01 10:58 | 43.70657 | 39.53429 | 17208 ft | 439 kts | 41° |
| 2026-05-01 10:58 | 43.72550 | 39.56790 | 18031 ft | 449 kts | 59° |
| 2026-05-01 10:58 | 43.73667 | 39.60836 | 18731 ft | 453 kts | 76° |
| 2026-05-01 10:59 | 43.74303 | 39.65150 | 19250 ft | 463 kts | 79° |
| 2026-05-01 10:59 | 43.74902 | 39.69555 | 19902 ft | 468 kts | 79° |
| 2026-05-01 10:59 | 43.75514 | 39.73989 | 20639 ft | 471 kts | 79° |
| 2026-05-01 10:59 | 43.76156 | 39.78457 | 21321 ft | 476 kts | 78° |
| 2026-05-01 11:00 | 43.76828 | 39.82967 | 21933 ft | 482 kts | 78° |
| 2026-05-01 11:00 | 43.77518 | 39.87529 | 22578 ft | 487 kts | 78° |
| 2026-05-01 11:00 | 43.78210 | 39.92139 | 23209 ft | 491 kts | 78° |
| 2026-05-01 11:00 | 43.78858 | 39.96808 | 23792 ft | 497 kts | 79° |
| 2026-05-01 11:01 | 43.79464 | 40.01535 | 24279 ft | 502 kts | 80° |
| 2026-05-01 11:01 | 43.80057 | 40.06327 | 24754 ft | 507 kts | 80° |
| 2026-05-01 11:01 | 43.80652 | 40.11151 | 25275 ft | 511 kts | 80° |
| 2026-05-01 11:01 | 43.81259 | 40.16024 | 25795 ft | 515 kts | 80° |
| 2026-05-01 11:02 | 43.81876 | 40.20930 | 26158 ft | 522 kts | 79° |
| 2026-05-01 11:02 | 43.82502 | 40.25895 | 26614 ft | 526 kts | 79° |
| 2026-05-01 11:02 | 43.83135 | 40.30923 | 27000 ft | 531 kts | 79° |
| 2026-05-01 11:02 | 43.83770 | 40.35965 | 27482 ft | 534 kts | 79° |
| 2026-05-01 11:03 | 43.84407 | 40.41054 | 27943 ft | 538 kts | 79° |
| 2026-05-01 11:03 | 43.85048 | 40.46188 | 28314 ft | 542 kts | 79° |
| 2026-05-01 11:03 | 43.85689 | 40.51362 | 28645 ft | 547 kts | 79° |
| 2026-05-01 11:03 | 43.86324 | 40.56502 | 29058 ft | 550 kts | 79° |
| 2026-05-01 11:04 | 43.86969 | 40.61743 | 29426 ft | 553 kts | 79° |
| 2026-05-01 11:04 | 43.87665 | 40.67065 | 29748 ft | 555 kts | 76° |
| 2026-05-01 11:04 | 43.88615 | 40.72176 | 30097 ft | 553 kts | 71° |
| 2026-05-01 11:04 | 43.89886 | 40.77192 | 30544 ft | 550 kts | 64° |
| 2026-05-01 11:05 | 43.91414 | 40.82036 | 31023 ft | 548 kts | 63° |
| 2026-05-01 11:05 | 43.92964 | 40.86854 | 31454 ft | 547 kts | 62° |
| 2026-05-01 11:05 | 43.94507 | 40.91677 | 31876 ft | 546 kts | 63° |
| 2026-05-01 11:05 | 43.96030 | 40.96498 | 32292 ft | 546 kts | 63° |
| 2026-05-01 11:06 | 43.97533 | 41.01317 | 32804 ft | 543 kts | 63° |
| 2026-05-01 11:06 | 43.99019 | 41.06123 | 33274 ft | 542 kts | 63° |
| 2026-05-01 11:06 | 44.00500 | 41.10940 | 33688 ft | 541 kts | 63° |
| 2026-05-01 11:07 | 44.03452 | 41.20556 | 34409 ft | 540 kts | 64° |
| 2026-05-01 11:07 | 44.04921 | 41.25346 | 34773 ft | 539 kts | 64° |
| 2026-05-01 11:07 | 44.06389 | 41.30142 | 35027 ft | 539 kts | 64° |
| 2026-05-01 11:07 | 44.07857 | 41.34941 | 34982 ft | 539 kts | 64° |
| 2026-05-01 11:08 | 44.10509 | 41.44672 | 34986 ft | 541 kts | 74° |
| 2026-05-01 11:08 | 44.11671 | 41.55040 | 34995 ft | 543 kts | 88° |
| 2026-05-01 11:09 | 44.11645 | 41.60283 | 34992 ft | 543 kts | 92° |
| 2026-05-01 11:09 | 44.11293 | 41.70782 | 34998 ft | 543 kts | 94° |
| 2026-05-01 11:10 | 44.10756 | 41.86536 | 34988 ft | 544 kts | 93° |
| 2026-05-01 11:10 | 44.10448 | 41.97049 | 34980 ft | 544 kts | 93° |
| 2026-05-01 11:11 | 44.10146 | 42.07570 | 34984 ft | 544 kts | 93° |
| 2026-05-01 11:11 | 44.09831 | 42.18076 | 34982 ft | 543 kts | 93° |
| 2026-05-01 11:12 | 44.09504 | 42.28558 | 34985 ft | 542 kts | 93° |
| 2026-05-01 11:12 | 44.09222 | 42.37331 | 34988 ft | 541 kts | 93° |
| 2026-05-01 11:13 | 44.08876 | 42.47775 | 34993 ft | 540 kts | 93° |
| 2026-05-01 11:13 | 44.08522 | 42.58196 | 35003 ft | 539 kts | 93° |
| 2026-05-01 11:14 | 44.08159 | 42.68608 | 35005 ft | 539 kts | 94° |
| 2026-05-01 11:14 | 44.07787 | 42.79008 | 35016 ft | 538 kts | 94° |
| 2026-05-01 11:15 | 44.07406 | 42.89394 | 35020 ft | 538 kts | 94° |
| 2026-05-01 11:15 | 44.07016 | 42.99772 | 35020 ft | 537 kts | 94° |
| 2026-05-01 11:16 | 44.06616 | 43.10156 | 35018 ft | 538 kts | 94° |
| 2026-05-01 11:16 | 44.06208 | 43.20524 | 35011 ft | 537 kts | 94° |
| 2026-05-01 11:17 | 44.05790 | 43.30887 | 35012 ft | 537 kts | 94° |
| 2026-05-01 11:17 | 44.05363 | 43.41244 | 35006 ft | 537 kts | 94° |
| 2026-05-01 11:18 | 44.04936 | 43.51375 | 34994 ft | 536 kts | 94° |
| 2026-05-01 11:18 | 44.04491 | 43.61718 | 34987 ft | 536 kts | 94° |
| 2026-05-01 11:19 | 44.04041 | 43.71968 | 34986 ft | 535 kts | 94° |
| 2026-05-01 11:19 | 44.03574 | 43.82376 | 34987 ft | 535 kts | 94° |
| 2026-05-01 11:20 | 44.03106 | 43.92614 | 34984 ft | 534 kts | 95° |
| 2026-05-01 11:20 | 44.02626 | 44.02914 | 34988 ft | 534 kts | 95° |
| 2026-05-01 11:21 | 44.02137 | 44.13206 | 34989 ft | 533 kts | 95° |
| 2026-05-01 11:21 | 44.01639 | 44.23479 | 34994 ft | 533 kts | 95° |
| 2026-05-01 11:22 | 44.01133 | 44.33731 | 34998 ft | 532 kts | 95° |
| 2026-05-01 11:22 | 44.00618 | 44.43974 | 35002 ft | 531 kts | 95° |
| 2026-05-01 11:23 | 44.00095 | 44.54201 | 34996 ft | 530 kts | 95° |
| 2026-05-01 11:23 | 43.99563 | 44.64417 | 34993 ft | 530 kts | 95° |
| 2026-05-01 11:24 | 43.99023 | 44.74604 | 34990 ft | 529 kts | 95° |
| 2026-05-01 11:25 | 43.98198 | 44.89864 | 34984 ft | 528 kts | 95° |
| 2026-05-01 11:25 | 43.97355 | 45.05095 | 34860 ft | 525 kts | 97° |
| 2026-05-01 11:26 | 43.96516 | 45.19943 | 34974 ft | 511 kts | 98° |
| 2026-05-01 11:27 | 43.95942 | 45.29794 | 34977 ft | 513 kts | 98° |
| 2026-05-01 11:27 | 43.95360 | 45.39693 | 34974 ft | 515 kts | 98° |
| 2026-05-01 11:28 | 43.94769 | 45.49614 | 34973 ft | 517 kts | 97° |
| 2026-05-01 11:28 | 43.94169 | 45.59551 | 34973 ft | 517 kts | 98° |
| 2026-05-01 11:29 | 43.93251 | 45.74466 | 34979 ft | 517 kts | 98° |
| 2026-05-01 11:30 | 43.92329 | 45.89375 | 34974 ft | 517 kts | 96° |
| 2026-05-01 11:30 | 43.92225 | 45.99353 | 34988 ft | 518 kts | 92° |
| 2026-05-01 11:31 | 43.92278 | 46.09345 | 34985 ft | 518 kts | 92° |
| 2026-05-01 11:31 | 43.92311 | 46.19335 | 34990 ft | 518 kts | 92° |
| 2026-05-01 11:32 | 43.92308 | 46.29319 | 34995 ft | 518 kts | 92° |
| 2026-05-01 11:32 | 43.92285 | 46.39304 | 35000 ft | 518 kts | 92° |
| 2026-05-01 11:33 | 43.92253 | 46.49288 | 35000 ft | 518 kts | 92° |
| 2026-05-01 11:33 | 43.92214 | 46.59284 | 35005 ft | 518 kts | 92° |
| 2026-05-01 11:34 | 43.92168 | 46.69282 | 35007 ft | 518 kts | 93° |
| 2026-05-01 11:34 | 43.92113 | 46.79273 | 35011 ft | 518 kts | 93° |
| 2026-05-01 11:35 | 43.92049 | 46.89279 | 35026 ft | 518 kts | 93° |
| 2026-05-01 11:35 | 43.91976 | 46.99268 | 35032 ft | 518 kts | 93° |
| 2026-05-01 11:36 | 43.91895 | 47.09266 | 35034 ft | 518 kts | 93° |
| 2026-05-01 11:36 | 43.91804 | 47.19264 | 35032 ft | 518 kts | 93° |
| 2026-05-01 11:37 | 43.91706 | 47.29243 | 35043 ft | 518 kts | 93° |
| 2026-05-01 11:37 | 43.91598 | 47.39226 | 35053 ft | 517 kts | 93° |
| 2026-05-01 11:38 | 43.91482 | 47.49200 | 35052 ft | 517 kts | 93° |
| 2026-05-01 11:38 | 43.91357 | 47.59171 | 35057 ft | 517 kts | 93° |
| 2026-05-01 11:39 | 43.91224 | 47.69136 | 35064 ft | 517 kts | 93° |
| 2026-05-01 11:39 | 43.91082 | 47.79094 | 35062 ft | 517 kts | 93° |
| 2026-05-01 11:40 | 43.90932 | 47.89054 | 35064 ft | 516 kts | 94° |
| 2026-05-01 11:40 | 43.90772 | 47.99011 | 35066 ft | 516 kts | 94° |
| 2026-05-01 11:41 | 43.90605 | 48.08965 | 35071 ft | 517 kts | 94° |
| 2026-05-01 11:41 | 43.90428 | 48.18919 | 35071 ft | 517 kts | 94° |
| 2026-05-01 11:42 | 43.90243 | 48.28887 | 35077 ft | 517 kts | 94° |
| 2026-05-01 11:42 | 43.90049 | 48.38837 | 35079 ft | 517 kts | 94° |
| 2026-05-01 11:43 | 43.89847 | 48.48809 | 35081 ft | 517 kts | 94° |
| 2026-05-01 11:43 | 43.89635 | 48.58772 | 35083 ft | 517 kts | 94° |
| 2026-05-01 11:44 | 43.89302 | 48.73728 | 35090 ft | 517 kts | 94° |
| 2026-05-01 11:44 | 43.89069 | 48.83687 | 35090 ft | 517 kts | 94° |
| 2026-05-01 11:45 | 43.88828 | 48.93666 | 35096 ft | 517 kts | 94° |
| 2026-05-01 11:45 | 43.88577 | 49.03628 | 35096 ft | 517 kts | 94° |
| 2026-05-01 11:46 | 43.88318 | 49.13601 | 35098 ft | 517 kts | 94° |
| 2026-05-01 11:46 | 43.88051 | 49.23562 | 35102 ft | 518 kts | 94° |
| 2026-05-01 11:47 | 43.87774 | 49.33561 | 35371 ft | 520 kts | 94° |
| 2026-05-01 11:47 | 43.87632 | 49.38559 | 35713 ft | 518 kts | 94° |
| 2026-05-01 11:47 | 43.87490 | 49.43531 | 36060 ft | 516 kts | 94° |
| 2026-05-01 11:48 | 43.87346 | 49.48495 | 36365 ft | 516 kts | 95° |
| 2026-05-01 11:48 | 43.87226 | 49.53472 | 36635 ft | 516 kts | 93° |
| 2026-05-01 11:48 | 43.87213 | 49.58451 | 36887 ft | 517 kts | 91° |
| 2026-05-01 11:48 | 43.87261 | 49.63433 | 37041 ft | 519 kts | 91° |
| 2026-05-01 11:49 | 43.87386 | 49.73451 | 37109 ft | 520 kts | 91° |
| 2026-05-01 11:49 | 43.87462 | 49.83438 | 37110 ft | 516 kts | 91° |
| 2026-05-01 11:50 | 43.87493 | 49.93372 | 37114 ft | 514 kts | 92° |
| 2026-05-01 11:50 | 43.87507 | 50.03273 | 37119 ft | 514 kts | 92° |
| 2026-05-01 11:51 | 43.87514 | 50.13176 | 37120 ft | 514 kts | 92° |
| 2026-05-01 11:51 | 43.87516 | 50.23100 | 37125 ft | 516 kts | 92° |
| 2026-05-01 11:52 | 43.87512 | 50.31368 | 37124 ft | 517 kts | 92° |
| 2026-05-01 11:52 | 43.87499 | 50.41342 | 37118 ft | 518 kts | 92° |
| 2026-05-01 11:53 | 43.87477 | 50.51343 | 37120 ft | 519 kts | 92° |
| 2026-05-01 11:53 | 43.87446 | 50.61357 | 37122 ft | 520 kts | 92° |
| 2026-05-01 11:54 | 43.87406 | 50.71386 | 37121 ft | 520 kts | 92° |
| 2026-05-01 11:54 | 43.87358 | 50.81413 | 37124 ft | 520 kts | 92° |
| 2026-05-01 11:55 | 43.87302 | 50.91428 | 37126 ft | 520 kts | 92° |
| 2026-05-01 11:55 | 43.87417 | 51.01431 | 37122 ft | 520 kts | 83° |
| 2026-05-01 11:56 | 43.89427 | 51.11023 | 37141 ft | 519 kts | 64° |
| 2026-05-01 11:56 | 43.93168 | 51.19539 | 37138 ft | 517 kts | 54° |
| 2026-05-01 11:57 | 43.97208 | 51.27817 | 37128 ft | 518 kts | 54° |
| 2026-05-01 11:57 | 44.01204 | 51.36168 | 37120 ft | 520 kts | 55° |
| 2026-05-01 11:58 | 44.05149 | 51.44588 | 37115 ft | 520 kts | 56° |
| 2026-05-01 11:59 | 44.11047 | 51.57278 | 37108 ft | 521 kts | 56° |
| 2026-05-01 11:59 | 44.14978 | 51.65751 | 37106 ft | 521 kts | 56° |
| 2026-05-01 12:00 | 44.20863 | 51.78475 | 37118 ft | 521 kts | 56° |
| 2026-05-01 12:01 | 44.26735 | 51.91227 | 37111 ft | 521 kts | 56° |
| 2026-05-01 12:01 | 44.30634 | 51.99729 | 37113 ft | 520 kts | 56° |
| 2026-05-01 12:02 | 44.34529 | 52.08245 | 37120 ft | 520 kts | 56° |
| 2026-05-01 12:02 | 44.38419 | 52.16755 | 37118 ft | 519 kts | 55° |
| 2026-05-01 12:03 | 44.42441 | 52.25148 | 37118 ft | 519 kts | 54° |
| 2026-05-01 12:03 | 44.46511 | 52.33481 | 37119 ft | 519 kts | 54° |
| 2026-05-01 12:04 | 44.50565 | 52.41853 | 37126 ft | 519 kts | 54° |
| 2026-05-01 12:04 | 44.54564 | 52.50189 | 37122 ft | 519 kts | 54° |
| 2026-05-01 12:05 | 44.58583 | 52.58603 | 37122 ft | 519 kts | 54° |
| 2026-05-01 12:05 | 44.64602 | 52.71244 | 37135 ft | 519 kts | 54° |
| 2026-05-01 12:06 | 44.68612 | 52.79691 | 37137 ft | 520 kts | 54° |
| 2026-05-01 12:06 | 44.72614 | 52.88149 | 37134 ft | 520 kts | 54° |
| 2026-05-01 12:07 | 44.76614 | 52.96628 | 37136 ft | 520 kts | 54° |
| 2026-05-01 12:07 | 44.80601 | 53.05105 | 37142 ft | 520 kts | 54° |
| 2026-05-01 12:08 | 44.84589 | 53.13605 | 37141 ft | 520 kts | 54° |
| 2026-05-01 12:08 | 44.88567 | 53.22119 | 37144 ft | 520 kts | 54° |
| 2026-05-01 12:09 | 44.92539 | 53.30652 | 37142 ft | 520 kts | 55° |
| 2026-05-01 12:09 | 44.96506 | 53.39199 | 37141 ft | 520 kts | 55° |
| 2026-05-01 12:10 | 45.02448 | 53.52045 | 37146 ft | 521 kts | 55° |
| 2026-05-01 12:11 | 45.08379 | 53.64927 | 37150 ft | 521 kts | 55° |
| 2026-05-01 12:11 | 45.12324 | 53.73529 | 37149 ft | 521 kts | 55° |
| 2026-05-01 12:12 | 45.16269 | 53.82157 | 37150 ft | 522 kts | 55° |
| 2026-05-01 12:12 | 45.20207 | 53.90793 | 37155 ft | 522 kts | 55° |
| 2026-05-01 12:13 | 45.24145 | 53.99440 | 37159 ft | 522 kts | 55° |
| 2026-05-01 12:13 | 45.28086 | 54.08096 | 37156 ft | 522 kts | 55° |
| 2026-05-01 12:14 | 45.32020 | 54.16764 | 37159 ft | 522 kts | 55° |
| 2026-05-01 12:14 | 45.35952 | 54.25458 | 37155 ft | 522 kts | 55° |
| 2026-05-01 12:15 | 45.39872 | 54.34156 | 37161 ft | 522 kts | 55° |
| 2026-05-01 12:15 | 45.43789 | 54.42872 | 37159 ft | 523 kts | 56° |
| 2026-05-01 12:16 | 45.47698 | 54.51596 | 37159 ft | 522 kts | 56° |
| 2026-05-01 12:16 | 45.51600 | 54.60334 | 37157 ft | 523 kts | 56° |
| 2026-05-01 12:17 | 45.55496 | 54.69084 | 37155 ft | 523 kts | 56° |
| 2026-05-01 12:17 | 45.59385 | 54.77860 | 37156 ft | 523 kts | 56° |
| 2026-05-01 12:18 | 45.63264 | 54.86645 | 37151 ft | 523 kts | 56° |
| 2026-05-01 12:18 | 45.67141 | 54.95453 | 37152 ft | 524 kts | 56° |
| 2026-05-01 12:19 | 45.71011 | 55.04273 | 37155 ft | 523 kts | 56° |
| 2026-05-01 12:19 | 45.74876 | 55.13108 | 37148 ft | 524 kts | 56° |
| 2026-05-01 12:20 | 45.78710 | 55.21900 | 37155 ft | 524 kts | 56° |
| 2026-05-01 12:20 | 45.82563 | 55.30763 | 37150 ft | 524 kts | 56° |
| 2026-05-01 12:21 | 45.86410 | 55.39640 | 37150 ft | 524 kts | 56° |
| 2026-05-01 12:21 | 45.90249 | 55.48528 | 37146 ft | 524 kts | 56° |
| 2026-05-01 12:22 | 45.94088 | 55.57443 | 37150 ft | 524 kts | 57° |
| 2026-05-01 12:22 | 45.97913 | 55.66354 | 37141 ft | 524 kts | 57° |
| 2026-05-01 12:23 | 46.01738 | 55.75295 | 37146 ft | 524 kts | 57° |
| 2026-05-01 12:23 | 46.05553 | 55.84240 | 37144 ft | 524 kts | 57° |
| 2026-05-01 12:24 | 46.09359 | 55.93193 | 37145 ft | 524 kts | 57° |
| 2026-05-01 12:24 | 46.13162 | 56.02168 | 37145 ft | 525 kts | 57° |
| 2026-05-01 12:25 | 46.18853 | 56.15653 | 37145 ft | 525 kts | 57° |
| 2026-05-01 12:26 | 46.22641 | 56.24663 | 37147 ft | 525 kts | 57° |
| 2026-05-01 12:26 | 46.28314 | 56.38216 | 37142 ft | 525 kts | 57° |
| 2026-05-01 12:27 | 46.33971 | 56.51795 | 37140 ft | 525 kts | 57° |
| 2026-05-01 12:28 | 46.39612 | 56.65404 | 37139 ft | 525 kts | 58° |
| 2026-05-01 12:29 | 46.45238 | 56.79042 | 37141 ft | 526 kts | 58° |
| 2026-05-01 12:29 | 46.51627 | 56.91873 | 37133 ft | 522 kts | 44° |
| 2026-05-01 12:30 | 46.59163 | 57.03277 | 37136 ft | 522 kts | 44° |
| 2026-05-01 12:31 | 46.64185 | 57.10921 | 37134 ft | 522 kts | 44° |
| 2026-05-01 12:31 | 46.69172 | 57.18618 | 37130 ft | 523 kts | 44° |
| 2026-05-01 12:32 | 46.74147 | 57.26346 | 37134 ft | 523 kts | 44° |
| 2026-05-01 12:32 | 46.81611 | 57.37975 | 37126 ft | 524 kts | 44° |
| 2026-05-01 12:33 | 46.86586 | 57.45748 | 37127 ft | 524 kts | 44° |
| 2026-05-01 12:33 | 46.91563 | 57.53545 | 37129 ft | 524 kts | 45° |
| 2026-05-01 12:34 | 46.96528 | 57.61348 | 37118 ft | 524 kts | 45° |
| 2026-05-01 12:34 | 47.01492 | 57.69171 | 37119 ft | 524 kts | 45° |
| 2026-05-01 12:35 | 47.06451 | 57.77011 | 37137 ft | 524 kts | 45° |
| 2026-05-01 12:35 | 47.11400 | 57.84858 | 37120 ft | 524 kts | 45° |
| 2026-05-01 12:36 | 47.15518 | 57.91405 | 37121 ft | 525 kts | 45° |
| 2026-05-01 12:36 | 47.20471 | 57.99301 | 37113 ft | 525 kts | 45° |
| 2026-05-01 12:37 | 47.25413 | 58.07202 | 37117 ft | 525 kts | 45° |
| 2026-05-01 12:37 | 47.31154 | 58.16418 | 37118 ft | 525 kts | 45° |
| 2026-05-01 12:38 | 47.35253 | 58.23133 | 37115 ft | 526 kts | 46° |
| 2026-05-01 12:38 | 47.40115 | 58.31186 | 37115 ft | 526 kts | 46° |
| 2026-05-01 12:39 | 47.44978 | 58.39259 | 37111 ft | 526 kts | 46° |
| 2026-05-01 12:39 | 47.49850 | 58.47349 | 37108 ft | 526 kts | 46° |
| 2026-05-01 12:40 | 47.54712 | 58.55441 | 37107 ft | 527 kts | 46° |
| 2026-05-01 12:40 | 47.59575 | 58.63560 | 37103 ft | 527 kts | 46° |
| 2026-05-01 12:41 | 47.64436 | 58.71698 | 37101 ft | 527 kts | 46° |
| 2026-05-01 12:41 | 47.69287 | 58.79848 | 37107 ft | 527 kts | 46° |
| 2026-05-01 12:42 | 47.74136 | 58.88019 | 37101 ft | 527 kts | 46° |
| 2026-05-01 12:42 | 47.78978 | 58.96202 | 37100 ft | 528 kts | 47° |
| 2026-05-01 12:43 | 47.83823 | 59.04416 | 37094 ft | 528 kts | 47° |
| 2026-05-01 12:43 | 47.88662 | 59.12645 | 37094 ft | 528 kts | 47° |
| 2026-05-01 12:44 | 47.93462 | 59.20832 | 37093 ft | 528 kts | 47° |
| 2026-05-01 12:45 | 48.03123 | 59.37388 | 37087 ft | 529 kts | 47° |
| 2026-05-01 12:45 | 48.07944 | 59.45689 | 37085 ft | 529 kts | 47° |
| 2026-05-01 12:46 | 48.12766 | 59.54018 | 37088 ft | 529 kts | 47° |
| 2026-05-01 12:46 | 48.17575 | 59.62349 | 37086 ft | 529 kts | 47° |
| 2026-05-01 12:47 | 48.22387 | 59.70713 | 37081 ft | 530 kts | 47° |
| 2026-05-01 12:47 | 48.27191 | 59.79088 | 37078 ft | 530 kts | 47° |
| 2026-05-01 12:48 | 48.31994 | 59.87487 | 37077 ft | 530 kts | 47° |
| 2026-05-01 12:48 | 48.36794 | 59.95908 | 37068 ft | 530 kts | 47° |
| 2026-05-01 12:49 | 48.41588 | 60.04346 | 37075 ft | 530 kts | 48° |
| 2026-05-01 12:49 | 48.46375 | 60.12798 | 37067 ft | 531 kts | 48° |
| 2026-05-01 12:50 | 48.51162 | 60.21277 | 37067 ft | 531 kts | 48° |
| 2026-05-01 12:50 | 48.55940 | 60.29768 | 37059 ft | 531 kts | 48° |
| 2026-05-01 12:51 | 48.60716 | 60.38281 | 37061 ft | 531 kts | 48° |
| 2026-05-01 12:52 | 48.67866 | 60.51079 | 37061 ft | 531 kts | 48° |
| 2026-05-01 12:52 | 48.75011 | 60.63928 | 37047 ft | 532 kts | 48° |
| 2026-05-01 12:53 | 48.82136 | 60.76802 | 37051 ft | 532 kts | 49° |
| 2026-05-01 12:54 | 48.86886 | 60.85422 | 37048 ft | 532 kts | 49° |
| 2026-05-01 12:54 | 48.93971 | 60.98331 | 37044 ft | 533 kts | 49° |
| 2026-05-01 12:55 | 49.01076 | 61.11338 | 37038 ft | 533 kts | 49° |
| 2026-05-01 12:56 | 49.05810 | 61.20041 | 37040 ft | 534 kts | 49° |
| 2026-05-01 12:56 | 49.10543 | 61.28770 | 37040 ft | 534 kts | 49° |
| 2026-05-01 12:57 | 49.15271 | 61.37520 | 37042 ft | 534 kts | 49° |
| 2026-05-01 12:57 | 49.22358 | 61.50688 | 37037 ft | 535 kts | 50° |
| 2026-05-01 12:58 | 49.27084 | 61.59506 | 37031 ft | 536 kts | 50° |
| 2026-05-01 12:59 | 49.34162 | 61.72769 | 37026 ft | 536 kts | 50° |
| 2026-05-01 12:59 | 49.41236 | 61.86092 | 37026 ft | 537 kts | 50° |
| 2026-05-01 13:00 | 49.48295 | 61.99452 | 37019 ft | 537 kts | 50° |
| 2026-05-01 13:01 | 49.55346 | 62.12866 | 37021 ft | 537 kts | 50° |
| 2026-05-01 13:02 | 49.62384 | 62.26324 | 37022 ft | 537 kts | 50° |
| 2026-05-01 13:07 | 50.18213 | 63.19704 | 36988 ft | 541 kts | 52° |
| 2026-05-01 13:08 | 50.22828 | 63.28981 | 36985 ft | 541 kts | 51° |
| 2026-05-01 13:08 | 50.27449 | 63.38241 | 36982 ft | 540 kts | 51° |
| 2026-05-01 13:09 | 50.32067 | 63.47522 | 36982 ft | 540 kts | 51° |
| 2026-05-01 13:09 | 50.36669 | 63.56812 | 36977 ft | 540 kts | 52° |
| 2026-05-01 13:10 | 50.41265 | 63.66130 | 36981 ft | 540 kts | 52° |
| 2026-05-01 13:10 | 50.45852 | 63.75464 | 36979 ft | 540 kts | 52° |
| 2026-05-01 13:11 | 50.50432 | 63.84817 | 36973 ft | 540 kts | 52° |
| 2026-05-01 13:11 | 50.55006 | 63.94190 | 36970 ft | 540 kts | 52° |
| 2026-05-01 13:12 | 50.59570 | 64.03576 | 36967 ft | 540 kts | 52° |
| 2026-05-01 13:12 | 50.64096 | 64.12916 | 36965 ft | 540 kts | 52° |
| 2026-05-01 13:13 | 50.68641 | 64.22332 | 36967 ft | 540 kts | 52° |
| 2026-05-01 13:13 | 50.73177 | 64.31760 | 36961 ft | 539 kts | 53° |
| 2026-05-01 13:14 | 50.77697 | 64.41191 | 36960 ft | 538 kts | 53° |
| 2026-05-01 13:14 | 50.82207 | 64.50635 | 36953 ft | 538 kts | 53° |
| 2026-05-01 13:15 | 50.86704 | 64.60085 | 36955 ft | 537 kts | 53° |
| 2026-05-01 13:15 | 50.91184 | 64.69534 | 36953 ft | 536 kts | 53° |
| 2026-05-01 13:16 | 50.95648 | 64.78983 | 36944 ft | 535 kts | 53° |
| 2026-05-01 13:16 | 51.00099 | 64.88440 | 36940 ft | 534 kts | 54° |
| 2026-05-01 13:17 | 51.08963 | 65.07374 | 36934 ft | 533 kts | 54° |
| 2026-05-01 13:18 | 51.15578 | 65.21594 | 36933 ft | 533 kts | 54° |
| 2026-05-01 13:18 | 51.19979 | 65.31099 | 36932 ft | 533 kts | 54° |
| 2026-05-01 13:19 | 51.24367 | 65.40611 | 36923 ft | 533 kts | 55° |
| 2026-05-01 13:20 | 51.30937 | 65.54917 | 36919 ft | 532 kts | 55° |
| 2026-05-01 13:20 | 51.35307 | 65.64476 | 36912 ft | 533 kts | 55° |
| 2026-05-01 13:21 | 51.41117 | 65.77243 | 36905 ft | 533 kts | 55° |
| 2026-05-01 13:21 | 51.45479 | 65.86867 | 36901 ft | 533 kts | 56° |
| 2026-05-01 13:22 | 51.49827 | 65.96497 | 36895 ft | 534 kts | 56° |
| 2026-05-01 13:22 | 51.54174 | 66.06159 | 36888 ft | 534 kts | 56° |
| 2026-05-01 13:23 | 51.58518 | 66.15854 | 36884 ft | 534 kts | 56° |
| 2026-05-01 13:23 | 51.62856 | 66.25570 | 36881 ft | 535 kts | 56° |
| 2026-05-01 13:24 | 51.67189 | 66.35310 | 36879 ft | 535 kts | 56° |
| 2026-05-01 13:25 | 51.73681 | 66.49974 | 36872 ft | 536 kts | 56° |
| 2026-05-01 13:25 | 51.78000 | 66.59777 | 36859 ft | 536 kts | 56° |
| 2026-05-01 13:26 | 51.82314 | 66.69606 | 36853 ft | 536 kts | 57° |
| 2026-05-01 13:26 | 51.86620 | 66.79454 | 36841 ft | 536 kts | 57° |
| 2026-05-01 13:27 | 51.90916 | 66.89317 | 36832 ft | 536 kts | 57° |
| 2026-05-01 13:27 | 51.97345 | 67.04148 | 36826 ft | 536 kts | 57° |
| 2026-05-01 13:28 | 52.03756 | 67.19021 | 36835 ft | 536 kts | 57° |
| 2026-05-01 13:29 | 52.12270 | 67.38911 | 36819 ft | 536 kts | 57° |
| 2026-05-01 13:31 | 52.25100 | 67.68716 | 36811 ft | 536 kts | 56° |
| 2026-05-01 13:32 | 52.36031 | 67.93345 | 36800 ft | 535 kts | 56° |
| 2026-05-01 13:33 | 52.46860 | 68.18170 | 36794 ft | 535 kts | 57° |
| 2026-05-01 13:34 | 52.55472 | 68.38077 | 36791 ft | 534 kts | 57° |
| 2026-05-01 13:35 | 52.61899 | 68.53034 | 36793 ft | 533 kts | 57° |
| 2026-05-01 13:36 | 52.68295 | 68.68006 | 36789 ft | 532 kts | 57° |
| 2026-05-01 13:36 | 52.74662 | 68.82999 | 36787 ft | 531 kts | 57° |
| 2026-05-01 13:37 | 52.78887 | 68.92998 | 36786 ft | 531 kts | 58° |
| 2026-05-01 13:37 | 52.83100 | 69.03007 | 36782 ft | 531 kts | 58° |
| 2026-05-01 13:38 | 52.89405 | 69.18061 | 36777 ft | 530 kts | 58° |
| 2026-05-01 13:39 | 52.93591 | 69.28104 | 36771 ft | 530 kts | 58° |
| 2026-05-01 13:39 | 52.97772 | 69.38175 | 36773 ft | 530 kts | 58° |
| 2026-05-01 13:40 | 53.01947 | 69.48273 | 36757 ft | 530 kts | 58° |
| 2026-05-01 13:40 | 53.06110 | 69.58381 | 36744 ft | 530 kts | 58° |
| 2026-05-01 13:41 | 53.10265 | 69.68511 | 36728 ft | 530 kts | 58° |
| 2026-05-01 13:41 | 53.14409 | 69.78654 | 36722 ft | 530 kts | 58° |
| 2026-05-01 13:42 | 53.18548 | 69.88825 | 36723 ft | 530 kts | 58° |
| 2026-05-01 13:42 | 53.22677 | 69.99012 | 36726 ft | 530 kts | 58° |
| 2026-05-01 13:43 | 53.26792 | 70.09207 | 36741 ft | 530 kts | 58° |
| 2026-05-01 13:43 | 53.30903 | 70.19433 | 36739 ft | 530 kts | 59° |
| 2026-05-01 13:44 | 53.35000 | 70.29666 | 36740 ft | 529 kts | 59° |
| 2026-05-01 13:44 | 53.39064 | 70.39856 | 36731 ft | 529 kts | 59° |
| 2026-05-01 13:45 | 53.43141 | 70.50122 | 36726 ft | 529 kts | 59° |
| 2026-05-01 13:45 | 53.47204 | 70.60392 | 36718 ft | 528 kts | 59° |
| 2026-05-01 13:46 | 53.51261 | 70.70691 | 36715 ft | 528 kts | 59° |
| 2026-05-01 13:46 | 53.55297 | 70.80976 | 36719 ft | 527 kts | 59° |
| 2026-05-01 13:47 | 53.59319 | 70.91270 | 36712 ft | 526 kts | 59° |
| 2026-05-01 13:47 | 53.63332 | 71.01582 | 36705 ft | 526 kts | 59° |
| 2026-05-01 13:48 | 53.67326 | 71.11890 | 36716 ft | 525 kts | 59° |
| 2026-05-01 13:48 | 53.71303 | 71.22195 | 36705 ft | 524 kts | 59° |
| 2026-05-01 13:49 | 53.75266 | 71.32506 | 36703 ft | 523 kts | 60° |
| 2026-05-01 13:49 | 53.79217 | 71.42828 | 36709 ft | 523 kts | 60° |
| 2026-05-01 13:50 | 53.83156 | 71.53162 | 36705 ft | 522 kts | 60° |
| 2026-05-01 13:50 | 53.87076 | 71.63487 | 36698 ft | 521 kts | 60° |
| 2026-05-01 13:51 | 53.90988 | 71.73836 | 36692 ft | 521 kts | 60° |
| 2026-05-01 13:51 | 53.94886 | 71.84190 | 36691 ft | 520 kts | 60° |
| 2026-05-01 13:52 | 53.98772 | 71.94555 | 36690 ft | 520 kts | 60° |
| 2026-05-01 13:52 | 54.02646 | 72.04934 | 36684 ft | 520 kts | 60° |
| 2026-05-01 13:53 | 54.06513 | 72.15336 | 36679 ft | 520 kts | 61° |
| 2026-05-01 13:53 | 54.12302 | 72.30987 | 36671 ft | 520 kts | 61° |
| 2026-05-01 13:54 | 54.16011 | 72.41558 | 36666 ft | 518 kts | 66° |
| 2026-05-01 13:54 | 54.18802 | 72.52813 | 36667 ft | 514 kts | 72° |
| 2026-05-01 13:55 | 54.21369 | 72.64206 | 36660 ft | 514 kts | 73° |
| 2026-05-01 13:55 | 54.23955 | 72.75597 | 36657 ft | 514 kts | 72° |
| 2026-05-01 13:56 | 54.26570 | 72.86991 | 36661 ft | 515 kts | 72° |
| 2026-05-01 13:56 | 54.29184 | 72.98393 | 36663 ft | 515 kts | 72° |
| 2026-05-01 13:57 | 54.31348 | 73.07891 | 36666 ft | 515 kts | 72° |
| 2026-05-01 13:57 | 54.34382 | 73.21286 | 36669 ft | 516 kts | 72° |
| 2026-05-01 13:58 | 54.36961 | 73.32749 | 36665 ft | 516 kts | 72° |
| 2026-05-01 13:58 | 54.39534 | 73.44243 | 36671 ft | 516 kts | 72° |
| 2026-05-01 13:59 | 54.42095 | 73.55748 | 36676 ft | 515 kts | 72° |
| 2026-05-01 13:59 | 54.44641 | 73.67245 | 36679 ft | 515 kts | 72° |
| 2026-05-01 14:00 | 54.47175 | 73.78750 | 36678 ft | 514 kts | 72° |
| 2026-05-01 14:00 | 54.49688 | 73.90260 | 36684 ft | 514 kts | 73° |
| 2026-05-01 14:01 | 54.52185 | 74.01770 | 36687 ft | 513 kts | 73° |
| 2026-05-01 14:01 | 54.54669 | 74.13281 | 36693 ft | 512 kts | 73° |
| 2026-05-01 14:02 | 54.57139 | 74.24791 | 36699 ft | 512 kts | 73° |
| 2026-05-01 14:02 | 54.59184 | 74.34365 | 36694 ft | 512 kts | 73° |
| 2026-05-01 14:03 | 54.62028 | 74.47760 | 36708 ft | 511 kts | 73° |
| 2026-05-01 14:03 | 54.64459 | 74.59278 | 36710 ft | 511 kts | 73° |
| 2026-05-01 14:04 | 54.66488 | 74.68944 | 36713 ft | 511 kts | 73° |
| 2026-05-01 14:04 | 54.68900 | 74.80495 | 36713 ft | 511 kts | 73° |
| 2026-05-01 14:05 | 54.71300 | 74.92055 | 36720 ft | 511 kts | 73° |
| 2026-05-01 14:05 | 54.73688 | 75.03625 | 36730 ft | 511 kts | 73° |
| 2026-05-01 14:06 | 54.76068 | 75.15221 | 36737 ft | 511 kts | 73° |
| 2026-05-01 14:06 | 54.78436 | 75.26827 | 36739 ft | 511 kts | 73° |
| 2026-05-01 14:07 | 54.80790 | 75.38430 | 36743 ft | 510 kts | 73° |
| 2026-05-01 14:08 | 54.84279 | 75.55758 | 36742 ft | 509 kts | 73° |
| 2026-05-01 14:08 | 54.86602 | 75.67374 | 36754 ft | 509 kts | 73° |
| 2026-05-01 14:09 | 54.88911 | 75.78981 | 36755 ft | 509 kts | 73° |
| 2026-05-01 14:09 | 54.91213 | 75.90599 | 36759 ft | 509 kts | 74° |
| 2026-05-01 14:10 | 54.93507 | 76.02241 | 36765 ft | 509 kts | 74° |
| 2026-05-01 14:10 | 54.95789 | 76.13896 | 36769 ft | 509 kts | 74° |
| 2026-05-01 14:11 | 54.98059 | 76.25558 | 36773 ft | 509 kts | 74° |
| 2026-05-01 14:11 | 55.01443 | 76.43079 | 36776 ft | 509 kts | 74° |
| 2026-05-01 14:12 | 55.03685 | 76.54775 | 36780 ft | 509 kts | 74° |
| 2026-05-01 14:12 | 55.05914 | 76.66475 | 36781 ft | 508 kts | 74° |
| 2026-05-01 14:13 | 55.08131 | 76.78185 | 36784 ft | 508 kts | 74° |
| 2026-05-01 14:13 | 55.10337 | 76.89905 | 36792 ft | 508 kts | 74° |
| 2026-05-01 14:14 | 55.12529 | 77.01628 | 36796 ft | 507 kts | 74° |
| 2026-05-01 14:14 | 55.14707 | 77.13346 | 36799 ft | 507 kts | 74° |
| 2026-05-01 14:15 | 55.16875 | 77.25086 | 36800 ft | 507 kts | 74° |
| 2026-05-01 14:15 | 55.19029 | 77.36828 | 36805 ft | 507 kts | 75° |
| 2026-05-01 14:16 | 55.21174 | 77.48587 | 36810 ft | 507 kts | 75° |
| 2026-05-01 14:16 | 55.23303 | 77.60340 | 36812 ft | 507 kts | 75° |
| 2026-05-01 14:17 | 55.25424 | 77.72119 | 36810 ft | 507 kts | 75° |
| 2026-05-01 14:17 | 55.27534 | 77.83910 | 36817 ft | 507 kts | 75° |
| 2026-05-01 14:18 | 55.29632 | 77.95717 | 36816 ft | 507 kts | 75° |
| 2026-05-01 14:18 | 55.31365 | 78.05526 | 36820 ft | 507 kts | 75° |
| 2026-05-01 14:19 | 55.33793 | 78.19358 | 36826 ft | 507 kts | 75° |
| 2026-05-01 14:19 | 55.35858 | 78.31191 | 36823 ft | 507 kts | 75° |
| 2026-05-01 14:20 | 55.39039 | 78.48913 | 36830 ft | 507 kts | 74° |
| 2026-05-01 14:21 | 55.41168 | 78.60720 | 36836 ft | 506 kts | 74° |
| 2026-05-01 14:21 | 55.43275 | 78.72543 | 36839 ft | 506 kts | 75° |
| 2026-05-01 14:22 | 55.46403 | 78.90288 | 36842 ft | 505 kts | 75° |
| 2026-05-01 14:22 | 55.48471 | 79.02118 | 36853 ft | 505 kts | 75° |
| 2026-05-01 14:23 | 55.50530 | 79.13972 | 36844 ft | 505 kts | 75° |
| 2026-05-01 14:23 | 55.52576 | 79.25828 | 36854 ft | 505 kts | 75° |
| 2026-05-01 14:24 | 55.54609 | 79.37685 | 36854 ft | 505 kts | 75° |
| 2026-05-01 14:24 | 55.56632 | 79.49564 | 36864 ft | 505 kts | 75° |
| 2026-05-01 14:25 | 55.58642 | 79.61447 | 36868 ft | 505 kts | 75° |
| 2026-05-01 14:25 | 55.60643 | 79.73354 | 36870 ft | 505 kts | 75° |
| 2026-05-01 14:26 | 55.63620 | 79.91207 | 36874 ft | 505 kts | 75° |
| 2026-05-01 14:27 | 55.65614 | 80.03126 | 36881 ft | 505 kts | 75° |
| 2026-05-01 14:27 | 55.67609 | 80.15046 | 36885 ft | 505 kts | 75° |
| 2026-05-01 14:28 | 55.70575 | 80.32950 | 36890 ft | 505 kts | 75° |
| 2026-05-01 14:28 | 55.72536 | 80.44900 | 36889 ft | 504 kts | 75° |
| 2026-05-01 14:29 | 55.74483 | 80.56859 | 36894 ft | 504 kts | 75° |
| 2026-05-01 14:30 | 55.78343 | 80.80808 | 36901 ft | 504 kts | 75° |
| 2026-05-01 14:31 | 55.81207 | 80.98795 | 36905 ft | 504 kts | 75° |
| 2026-05-01 14:31 | 55.83102 | 81.10804 | 36910 ft | 504 kts | 75° |
| 2026-05-01 14:32 | 55.84986 | 81.22829 | 36919 ft | 504 kts | 75° |
| 2026-05-01 14:32 | 55.86855 | 81.34848 | 36922 ft | 504 kts | 75° |
| 2026-05-01 14:33 | 55.88716 | 81.46898 | 36926 ft | 504 kts | 75° |
| 2026-05-01 14:33 | 55.90564 | 81.58957 | 36926 ft | 504 kts | 75° |
| 2026-05-01 14:34 | 55.92402 | 81.71030 | 36932 ft | 505 kts | 75° |
| 2026-05-01 14:34 | 55.94228 | 81.83120 | 36936 ft | 505 kts | 75° |
| 2026-05-01 14:35 | 55.96041 | 81.95215 | 36938 ft | 505 kts | 76° |
| 2026-05-01 14:35 | 55.97844 | 82.07330 | 36945 ft | 505 kts | 75° |
| 2026-05-01 14:36 | 55.99626 | 82.19382 | 36952 ft | 505 kts | 75° |
| 2026-05-01 14:36 | 56.01405 | 82.31608 | 36955 ft | 505 kts | 76° |
| 2026-05-01 14:37 | 56.03141 | 82.43693 | 36957 ft | 505 kts | 76° |
| 2026-05-01 14:37 | 56.04881 | 82.55856 | 36956 ft | 505 kts | 76° |
| 2026-05-01 14:38 | 56.06660 | 82.68010 | 36962 ft | 505 kts | 75° |
| 2026-05-01 14:38 | 56.08362 | 82.80285 | 36961 ft | 505 kts | 77° |
| 2026-05-01 14:39 | 56.09897 | 82.92471 | 36963 ft | 505 kts | 77° |
| 2026-05-01 14:39 | 56.11443 | 83.04740 | 36960 ft | 505 kts | 77° |
| 2026-05-01 14:40 | 56.13000 | 83.17008 | 36971 ft | 505 kts | 77° |
| 2026-05-01 14:40 | 56.14551 | 83.29296 | 36968 ft | 505 kts | 77° |
| 2026-05-01 14:41 | 56.16111 | 83.41571 | 36970 ft | 505 kts | 76° |
| 2026-05-01 14:41 | 56.17764 | 83.53835 | 36972 ft | 505 kts | 76° |
| 2026-05-01 14:42 | 56.19412 | 83.66096 | 36981 ft | 506 kts | 76° |
| 2026-05-01 14:42 | 56.21032 | 83.78383 | 36980 ft | 506 kts | 76° |
| 2026-05-01 14:43 | 56.22637 | 83.90686 | 36979 ft | 506 kts | 76° |
| 2026-05-01 14:43 | 56.24228 | 84.03011 | 36984 ft | 506 kts | 76° |
| 2026-05-01 14:44 | 56.25768 | 84.15354 | 36980 ft | 506 kts | 76° |
| 2026-05-01 14:44 | 56.28045 | 84.33901 | 36989 ft | 506 kts | 76° |
| 2026-05-01 14:45 | 56.30302 | 84.52444 | 36993 ft | 506 kts | 76° |
| 2026-05-01 14:46 | 56.31554 | 84.62829 | 36996 ft | 506 kts | 76° |
| 2026-05-01 14:46 | 56.33760 | 84.81328 | 37012 ft | 505 kts | 76° |
| 2026-05-01 14:47 | 56.35221 | 84.93721 | 37018 ft | 505 kts | 76° |
| 2026-05-01 14:48 | 56.37401 | 85.12417 | 37026 ft | 506 kts | 76° |
| 2026-05-01 14:48 | 56.38492 | 85.31334 | 37029 ft | 508 kts | 90° |
| 2026-05-01 14:49 | 56.38273 | 85.56755 | 37021 ft | 509 kts | 89° |
| 2026-05-01 14:50 | 56.38130 | 85.82286 | 37024 ft | 509 kts | 89° |
| 2026-05-01 14:51 | 56.37990 | 86.01477 | 37032 ft | 510 kts | 89° |
| 2026-05-01 14:52 | 56.37852 | 86.20659 | 37032 ft | 510 kts | 89° |
| 2026-05-01 14:53 | 56.37697 | 86.39876 | 37035 ft | 511 kts | 89° |
| 2026-05-01 14:53 | 56.37574 | 86.52683 | 37038 ft | 511 kts | 89° |
| 2026-05-01 14:54 | 56.37437 | 86.65498 | 37035 ft | 511 kts | 89° |
| 2026-05-01 14:54 | 56.37287 | 86.78332 | 37040 ft | 511 kts | 89° |
| 2026-05-01 14:55 | 56.37123 | 86.91145 | 37041 ft | 512 kts | 89° |
| 2026-05-01 14:55 | 56.36946 | 87.03985 | 37043 ft | 512 kts | 89° |
| 2026-05-01 14:56 | 56.36756 | 87.16825 | 37047 ft | 512 kts | 89° |
| 2026-05-01 14:56 | 56.36553 | 87.29661 | 37050 ft | 512 kts | 89° |
| 2026-05-01 14:57 | 56.36336 | 87.42500 | 37046 ft | 513 kts | 89° |
| 2026-05-01 14:57 | 56.35985 | 87.61790 | 37060 ft | 513 kts | 89° |
| 2026-05-01 14:58 | 56.35735 | 87.74643 | 37056 ft | 513 kts | 89° |
| 2026-05-01 14:58 | 56.35472 | 87.87492 | 37060 ft | 513 kts | 89° |
| 2026-05-01 14:59 | 56.35195 | 88.00333 | 37063 ft | 513 kts | 89° |
| 2026-05-01 14:59 | 56.34905 | 88.13181 | 37068 ft | 513 kts | 90° |
| 2026-05-01 15:00 | 56.34445 | 88.32430 | 37071 ft | 512 kts | 90° |
| 2026-05-01 15:01 | 56.34123 | 88.45253 | 37070 ft | 512 kts | 90° |
| 2026-05-01 15:01 | 56.33787 | 88.58047 | 37070 ft | 511 kts | 90° |
| 2026-05-01 15:02 | 56.33439 | 88.70839 | 37071 ft | 511 kts | 90° |
| 2026-05-01 15:02 | 56.33080 | 88.83620 | 37075 ft | 510 kts | 90° |
| 2026-05-01 15:03 | 56.32714 | 88.96373 | 37076 ft | 510 kts | 90° |
| 2026-05-01 15:03 | 56.32365 | 89.09131 | 37076 ft | 510 kts | 89° |
| 2026-05-01 15:04 | 56.32008 | 89.21886 | 37082 ft | 509 kts | 90° |
| 2026-05-01 15:04 | 56.31636 | 89.34621 | 37081 ft | 510 kts | 90° |
| 2026-05-01 15:05 | 56.31247 | 89.47376 | 36899 ft | 512 kts | 90° |
| 2026-05-01 15:05 | 56.31048 | 89.53803 | 36298 ft | 515 kts | 90° |
| 2026-05-01 15:05 | 56.30843 | 89.60231 | 35614 ft | 511 kts | 90° |
| 2026-05-01 15:05 | 56.30636 | 89.66560 | 34930 ft | 501 kts | 90° |
| 2026-05-01 15:06 | 56.30429 | 89.72761 | 34278 ft | 491 kts | 90° |
| 2026-05-01 15:06 | 56.30225 | 89.78859 | 33574 ft | 488 kts | 90° |
| 2026-05-01 15:06 | 56.30020 | 89.84970 | 32867 ft | 489 kts | 90° |
| 2026-05-01 15:06 | 56.29813 | 89.91080 | 32178 ft | 489 kts | 90° |
| 2026-05-01 15:07 | 56.29602 | 89.97195 | 31498 ft | 486 kts | 90° |
| 2026-05-01 15:07 | 56.29390 | 90.03190 | 30812 ft | 476 kts | 90° |
| 2026-05-01 15:07 | 56.29177 | 90.09082 | 30153 ft | 466 kts | 90° |
| 2026-05-01 15:07 | 56.28967 | 90.14846 | 29387 ft | 457 kts | 90° |
| 2026-05-01 15:08 | 56.28759 | 90.20498 | 28648 ft | 448 kts | 90° |
| 2026-05-01 15:08 | 56.28553 | 90.26048 | 27943 ft | 440 kts | 90° |
| 2026-05-01 15:08 | 56.28349 | 90.31491 | 27266 ft | 433 kts | 90° |
| 2026-05-01 15:08 | 56.28146 | 90.36865 | 26635 ft | 431 kts | 91° |
| 2026-05-01 15:09 | 56.27941 | 90.42268 | 26031 ft | 433 kts | 91° |
| 2026-05-01 15:09 | 56.27733 | 90.47679 | 25441 ft | 435 kts | 91° |
| 2026-05-01 15:09 | 56.27520 | 90.53097 | 24847 ft | 430 kts | 91° |
| 2026-05-01 15:09 | 56.27307 | 90.58411 | 24231 ft | 422 kts | 91° |
| 2026-05-01 15:10 | 56.27213 | 90.63625 | 23612 ft | 411 kts | 85° |
| 2026-05-01 15:10 | 56.27465 | 90.73701 | 22216 ft | 397 kts | 84° |
| 2026-05-01 15:10 | 56.27601 | 90.78619 | 21565 ft | 391 kts | 84° |
| 2026-05-01 15:11 | 56.27730 | 90.83523 | 21002 ft | 394 kts | 84° |
| 2026-05-01 15:11 | 56.27969 | 90.93442 | 19893 ft | 398 kts | 84° |
| 2026-05-01 15:11 | 56.28081 | 90.98433 | 19371 ft | 398 kts | 84° |
| 2026-05-01 15:12 | 56.28188 | 91.03358 | 19186 ft | 388 kts | 84° |
| 2026-05-01 15:12 | 56.28389 | 91.12994 | 18510 ft | 389 kts | 86° |
| 2026-05-01 15:12 | 56.28241 | 91.17866 | 17960 ft | 391 kts | 94° |
| 2026-05-01 15:13 | 56.26949 | 91.31949 | 16600 ft | 364 kts | 97° |
| 2026-05-01 15:14 | 56.26153 | 91.40919 | 15806 ft | 369 kts | 97° |
| 2026-05-01 15:14 | 56.25766 | 91.45502 | 15391 ft | 371 kts | 97° |
| 2026-05-01 15:14 | 56.25008 | 91.54566 | 14545 ft | 357 kts | 97° |
| 2026-05-01 15:15 | 56.24289 | 91.63112 | 13773 ft | 336 kts | 97° |
| 2026-05-01 15:15 | 56.23967 | 91.71333 | 12971 ft | 327 kts | 77° |
| 2026-05-01 15:16 | 56.24919 | 91.79243 | 12293 ft | 324 kts | 75° |
| 2026-05-01 15:16 | 56.25848 | 91.87015 | 11606 ft | 306 kts | 76° |
| 2026-05-01 15:17 | 56.26717 | 91.94575 | 11002 ft | 311 kts | 76° |
| 2026-05-01 15:18 | 56.27974 | 92.05781 | 9983 ft | 294 kts | 77° |
| 2026-05-01 15:18 | 56.28377 | 92.09397 | 9674 ft | 297 kts | 77° |
| 2026-05-01 15:19 | 56.29304 | 92.20508 | 8681 ft | 297 kts | 93° |
| 2026-05-01 15:19 | 56.28831 | 92.27831 | 8029 ft | 288 kts | 97° |
| 2026-05-01 15:19 | 56.28583 | 92.31304 | 7689 ft | 279 kts | 97° |
| 2026-05-01 15:20 | 56.28141 | 92.38093 | 7064 ft | 272 kts | 96° |
| 2026-05-01 15:20 | 56.27934 | 92.41503 | 6792 ft | 276 kts | 96° |
| 2026-05-01 15:20 | 56.27730 | 92.44943 | 6506 ft | 277 kts | 96° |
| 2026-05-01 15:21 | 56.27526 | 92.48426 | 6210 ft | 275 kts | 96° |
| 2026-05-01 15:21 | 56.27330 | 92.51798 | 5913 ft | 273 kts | 96° |
| 2026-05-01 15:21 | 56.27135 | 92.55174 | 5615 ft | 262 kts | 96° |
| 2026-05-01 15:21 | 56.26950 | 92.58371 | 5336 ft | 252 kts | 96° |
| 2026-05-01 15:22 | 56.26586 | 92.64566 | 4867 ft | 249 kts | 96° |
| 2026-05-01 15:22 | 56.26379 | 92.67621 | 4698 ft | 241 kts | 103° |
| 2026-05-01 15:22 | 56.25800 | 92.70495 | 4553 ft | 244 kts | 114° |
| 2026-05-01 15:23 | 56.25084 | 92.73312 | 4428 ft | 250 kts | 115° |
| 2026-05-01 15:23 | 56.24376 | 92.76129 | 4252 ft | 251 kts | 114° |
| 2026-05-01 15:23 | 56.23678 | 92.78967 | 4094 ft | 244 kts | 114° |
| 2026-05-01 15:23 | 56.22925 | 92.81608 | 3980 ft | 237 kts | 130° |
| 2026-05-01 15:24 | 56.21592 | 92.83330 | 3836 ft | 240 kts | 162° |
| 2026-05-01 15:24 | 56.19949 | 92.83539 | 3639 ft | 237 kts | 192° |
| 2026-05-01 15:24 | 56.18402 | 92.82611 | 3462 ft | 234 kts | 203° |
| 2026-05-01 15:24 | 56.16921 | 92.81438 | 3259 ft | 230 kts | 204° |
| 2026-05-01 15:25 | 56.15476 | 92.80284 | 3099 ft | 223 kts | 204° |
| 2026-05-01 15:25 | 56.14090 | 92.79191 | 3011 ft | 212 kts | 204° |
| 2026-05-01 15:25 | 56.12770 | 92.78132 | 2990 ft | 205 kts | 211° |
| 2026-05-01 15:25 | 56.11805 | 92.76315 | 3000 ft | 206 kts | 248° |
| 2026-05-01 15:26 | 56.11664 | 92.73805 | 2991 ft | 203 kts | 283° |
| 2026-05-01 15:26 | 56.12071 | 92.71429 | 3053 ft | 197 kts | 289° |
| 2026-05-01 15:26 | 56.12548 | 92.69194 | 3008 ft | 187 kts | 292° |
| 2026-05-01 15:26 | 56.13047 | 92.67085 | 2745 ft | 178 kts | 292° |
| 2026-05-01 15:27 | 56.13512 | 92.65145 | 2523 ft | 162 kts | 292° |
| 2026-05-01 15:27 | 56.13934 | 92.63381 | 2335 ft | 150 kts | 292° |
| 2026-05-01 15:27 | 56.14347 | 92.61653 | 2141 ft | 152 kts | 292° |
| 2026-05-01 15:28 | 56.15038 | 92.58761 | 1787 ft | 148 kts | 292° |
| 2026-05-01 15:28 | 56.15440 | 92.57076 | 1586 ft | 146 kts | 293° |
| 2026-05-01 15:28 | 56.15840 | 92.55405 | 1375 ft | 145 kts | 292° |
| 2026-05-01 15:29 | 56.16638 | 92.52104 | 1015 ft | 145 kts | 294° |
| 2026-05-01 15:29 | 56.17014 | 92.50516 | 954 ft | 127 kts | 293° |
| 2026-05-01 15:29 | 56.17478 | 92.48562 | 953 ft | 41 kts | 293° |
| 2026-05-01 15:30 | 56.17678 | 92.47775 | 952 ft | 8 kts | 326° |
| 2026-05-01 15:31 | 56.17813 | 92.47834 | 954 ft | 0 kts | 23° |
| 2026-05-01 15:32 | 56.17848 | 92.47844 | 954 ft | 4 kts | 338° |
| 2026-05-01 15:32 | 56.17880 | 92.47773 | 954 ft | 8 kts | 298° |
| 2026-05-01 15:33 | 56.17970 | 92.47406 | 956 ft | 10 kts | 293° |
| 2026-05-01 15:34 | 56.18057 | 92.47040 | 953 ft | 10 kts | 293° |